createdAt,value
2022-10-23T00:00:12.023Z,7.57
2022-10-23T00:02:14.805Z,9.87
2022-10-23T00:04:19.963Z,9.20
2022-10-23T00:06:23.124Z,8.37
2022-10-23T00:08:25.943Z,9.13
2022-10-23T00:10:29.628Z,8.00
2022-10-23T00:12:33.730Z,11.73
2022-10-23T00:14:36.459Z,9.23
2022-10-23T00:16:39.131Z,9.20
2022-10-23T00:18:42.428Z,9.77
2022-10-23T00:20:45.196Z,7.57
2022-10-23T00:22:47.978Z,9.90
2022-10-23T00:24:50.747Z,10.63
2022-10-23T00:26:53.720Z,7.13
2022-10-23T00:28:57.927Z,8.33
2022-10-23T00:31:02.963Z,11.10
2022-10-23T00:33:06.032Z,8.33
2022-10-23T00:35:09.622Z,8.63
2022-10-23T00:37:12.731Z,11.37
2022-10-23T00:39:15.623Z,11.67
2022-10-23T00:41:21.498Z,10.10
2022-10-23T00:43:26.818Z,9.53
2022-10-23T00:45:33.357Z,10.50
2022-10-23T00:47:36.295Z,9.03
2022-10-23T00:49:42.042Z,10.43
2022-10-23T00:51:48.659Z,8.10
2022-10-23T00:54:01.258Z,9.77
2022-10-23T00:56:15.760Z,9.47
2022-10-23T00:58:20.879Z,11.10
2022-10-23T01:00:25.651Z,7.33
2022-10-23T01:02:30.240Z,9.33
2022-10-23T01:04:34.017Z,6.93
2022-10-23T01:06:38.933Z,9.73
2022-10-23T01:08:48.723Z,8.27
2022-10-23T01:10:58.448Z,6.43
2022-10-23T01:13:06.888Z,7.00
2022-10-23T01:15:17.849Z,7.50
2022-10-23T01:17:26.744Z,10.00
2022-10-23T01:19:47.472Z,9.23
2022-10-23T01:21:56.884Z,8.53
2022-10-23T01:24:11.192Z,8.40
2022-10-23T01:26:30.464Z,6.87
2022-10-23T01:28:43.089Z,7.27
2022-10-23T01:30:46.127Z,9.13
2022-10-23T01:32:52.164Z,9.67
2022-10-23T01:35:03.217Z,7.33
2022-10-23T01:37:09.008Z,8.93
2022-10-23T01:39:16.057Z,11.23
2022-10-23T01:41:24.264Z,5.97
2022-10-23T01:43:31.288Z,10.97
2022-10-23T01:45:42.012Z,8.27
2022-10-23T01:47:45.927Z,9.13
2022-10-23T01:49:51.985Z,7.13
2022-10-23T01:51:57.208Z,11.00
2022-10-23T01:54:01.787Z,10.50
2022-10-23T01:56:08.412Z,7.73
2022-10-23T01:58:12.096Z,12.73
2022-10-23T02:00:17.597Z,11.03
2022-10-23T02:02:23.708Z,8.40
2022-10-23T02:04:31.711Z,8.80
2022-10-23T02:06:34.924Z,5.47
2022-10-23T02:08:37.763Z,10.00
2022-10-23T02:10:45.685Z,9.50
2022-10-23T02:12:55.727Z,10.17
2022-10-23T02:15:03.047Z,6.30
2022-10-23T02:17:15.865Z,11.33
2022-10-23T02:19:30.382Z,9.73
2022-10-23T02:21:40.240Z,10.60
2022-10-23T02:23:51.397Z,8.13
2022-10-23T02:26:03.360Z,7.33
2022-10-23T02:28:10.471Z,9.93
2022-10-23T02:30:15.506Z,9.00
2022-10-23T02:32:20.881Z,11.20
2022-10-23T02:34:26.124Z,6.83
2022-10-23T02:36:28.838Z,5.33
2022-10-23T02:38:34.824Z,9.27
2022-10-23T02:40:42.783Z,8.53
2022-10-23T02:42:54.166Z,7.27
2022-10-23T02:45:05.871Z,10.37
2022-10-23T02:47:18.529Z,7.67
2022-10-23T02:49:29.797Z,6.83
2022-10-23T02:51:36.508Z,6.47
2022-10-23T02:53:47.976Z,6.83
2022-10-23T02:56:00.228Z,12.07
2022-10-23T02:58:09.186Z,6.50
2022-10-23T03:00:15.644Z,8.57
2022-10-23T03:02:23.215Z,5.30
2022-10-23T03:04:30.452Z,4.97
2022-10-23T03:06:34.182Z,8.37
2022-10-23T03:08:43.732Z,4.70
2022-10-23T03:10:46.499Z,6.13
2022-10-23T03:12:49.667Z,7.53
2022-10-23T03:14:52.755Z,7.30
2022-10-23T03:16:55.472Z,6.40
2022-10-23T03:18:58.233Z,7.07
2022-10-23T03:21:02.575Z,6.40
2022-10-23T03:23:05.323Z,8.53
2022-10-23T03:25:09.203Z,9.53
2022-10-23T03:27:12.251Z,7.43
2022-10-23T03:29:14.963Z,5.93
2022-10-23T03:31:17.727Z,5.80
2022-10-23T03:33:20.487Z,12.23
2022-10-23T03:35:26.448Z,6.10
2022-10-23T03:37:30.586Z,7.20
2022-10-23T03:39:33.398Z,7.33
2022-10-23T03:41:36.284Z,11.63
2022-10-23T03:43:39.062Z,8.17
2022-10-23T03:45:41.991Z,9.77
2022-10-23T03:47:45.323Z,9.17
2022-10-23T03:49:48.244Z,7.50
2022-10-23T03:51:52.581Z,7.93
2022-10-23T03:53:56.858Z,6.50
2022-10-23T03:56:00.271Z,6.97
2022-10-23T03:58:03.049Z,5.80
2022-10-23T04:00:08.535Z,7.13
2022-10-23T04:02:11.634Z,6.13
2022-10-23T04:04:15.273Z,5.07
2022-10-23T04:06:18.032Z,6.33
2022-10-23T04:08:20.864Z,7.50
2022-10-23T04:10:24.925Z,5.50
2022-10-23T04:12:27.591Z,6.17
2022-10-23T04:14:30.331Z,5.73
2022-10-23T04:16:33.062Z,8.23
2022-10-23T04:18:35.880Z,6.23
2022-10-23T04:20:38.588Z,5.87
2022-10-23T04:22:41.508Z,6.23
2022-10-23T04:24:46.590Z,10.07
2022-10-23T04:26:50.715Z,7.57
2022-10-23T04:28:53.423Z,11.83
2022-10-23T04:30:56.434Z,8.47
2022-10-23T04:32:59.154Z,6.27
2022-10-23T04:35:01.849Z,6.03
2022-10-23T04:37:04.815Z,9.93
2022-10-23T04:39:07.573Z,5.67
2022-10-23T04:41:10.814Z,8.53
2022-10-23T04:43:14.824Z,9.23
2022-10-23T04:45:18.047Z,8.03
2022-10-23T04:47:20.905Z,7.23
2022-10-23T04:49:23.703Z,7.70
2022-10-23T04:51:26.401Z,7.03
2022-10-23T04:53:29.790Z,7.37
2022-10-23T04:55:32.700Z,5.87
2022-10-23T04:57:35.379Z,8.83
2022-10-23T04:59:39.506Z,5.47
2022-10-23T05:01:42.290Z,7.03
2022-10-23T05:03:45.115Z,6.70
2022-10-23T05:05:48.040Z,5.03
2022-10-23T05:07:50.951Z,7.03
2022-10-23T05:09:53.631Z,6.33
2022-10-23T05:11:56.320Z,8.83
2022-10-23T05:13:59.154Z,11.17
2022-10-23T05:16:03.990Z,9.40
2022-10-23T05:18:14.026Z,6.40
2022-10-23T05:20:20.730Z,5.80
2022-10-23T05:22:26.612Z,5.37
2022-10-23T05:24:29.647Z,6.00
2022-10-23T05:26:33.083Z,7.00
2022-10-23T05:28:36.182Z,12.70
2022-10-23T05:30:39.836Z,6.83
2022-10-23T05:32:44.317Z,7.70
2022-10-23T05:34:47.758Z,7.30
2022-10-23T05:36:50.597Z,10.67
2022-10-23T05:38:54.413Z,6.77
2022-10-23T05:40:57.629Z,7.90
2022-10-23T05:43:00.420Z,7.73
2022-10-23T05:45:03.143Z,6.47
2022-10-23T05:47:06.024Z,8.53
2022-10-23T05:49:10.171Z,7.80
2022-10-23T05:51:17.814Z,5.30
2022-10-23T05:53:20.831Z,6.60
2022-10-23T05:55:23.709Z,7.13
2022-10-23T05:57:26.432Z,13.60
2022-10-23T05:59:29.687Z,8.40
2022-10-23T06:01:32.511Z,8.13
2022-10-23T06:03:35.627Z,7.67
2022-10-23T06:07:47.656Z,5.23
2022-10-23T06:09:50.369Z,7.00
2022-10-23T06:11:53.363Z,7.53
2022-10-23T06:15:58.894Z,4.87
2022-10-23T06:18:02.076Z,7.63
2022-10-23T06:20:05.554Z,8.77
2022-10-23T06:22:09.908Z,5.60
2022-10-23T06:24:12.607Z,6.77
2022-10-23T06:26:17.542Z,8.73
2022-10-23T06:28:20.789Z,7.07
2022-10-23T06:30:23.865Z,9.27
2022-10-23T06:32:26.571Z,7.90
2022-10-23T06:34:29.238Z,10.37
2022-10-23T06:36:31.939Z,8.67
2022-10-23T06:38:37.324Z,8.87
2022-10-23T06:40:40.112Z,9.30
2022-10-23T06:42:43.055Z,6.10
2022-10-23T06:44:46.119Z,9.83
2022-10-23T06:46:49.200Z,7.27
2022-10-23T06:48:51.883Z,10.00
2022-10-23T06:50:55.645Z,7.50
2022-10-23T06:52:58.347Z,8.33
2022-10-23T06:55:02.604Z,5.43
2022-10-23T06:57:05.281Z,9.40
2022-10-23T06:59:08.665Z,9.37
2022-10-23T07:01:14.378Z,6.30
2022-10-23T07:03:17.534Z,9.80
2022-10-23T07:05:20.788Z,8.87
2022-10-23T07:07:23.479Z,6.60
2022-10-23T07:09:26.519Z,7.43
2022-10-23T07:11:30.561Z,6.70
2022-10-23T07:13:35.116Z,5.97
2022-10-23T07:15:38.650Z,8.27
2022-10-23T07:17:41.652Z,6.77
2022-10-23T07:19:44.335Z,9.00
2022-10-23T07:21:48.101Z,8.63
2022-10-23T07:23:50.920Z,6.53
2022-10-23T07:25:54.767Z,5.83
2022-10-23T07:27:58.927Z,7.37
2022-10-23T07:30:01.586Z,5.47
2022-10-23T07:32:04.758Z,9.23
2022-10-23T07:34:07.653Z,9.67
2022-10-23T07:36:11.051Z,9.83
2022-10-23T07:38:13.948Z,6.43
2022-10-23T07:40:17.156Z,8.07
2022-10-23T07:42:20.203Z,6.33
2022-10-23T07:44:27.056Z,10.07
2022-10-23T07:46:30.621Z,7.00
2022-10-23T07:48:33.318Z,7.57
2022-10-23T07:50:39.018Z,9.40
2022-10-23T07:52:41.846Z,9.87
2022-10-23T07:54:44.915Z,9.10
2022-10-23T07:56:48.059Z,9.60
2022-10-23T07:58:53.635Z,7.53
2022-10-23T08:00:59.144Z,6.77
2022-10-23T08:03:02.723Z,9.80
2022-10-23T08:05:05.955Z,9.67
2022-10-23T08:07:08.680Z,11.77
2022-10-23T08:09:11.444Z,8.03
2022-10-23T08:11:16.236Z,8.77
2022-10-23T08:13:22.513Z,8.02
2022-10-23T08:15:25.237Z,9.32
2022-10-23T08:17:29.277Z,5.80
2022-10-23T08:19:32.094Z,8.93
2022-10-23T08:21:35.024Z,6.17
2022-10-23T08:23:38.372Z,9.00
2022-10-23T08:25:41.721Z,5.90
2022-10-23T08:27:45.365Z,5.00
2022-10-23T08:29:48.200Z,5.18
2022-10-23T08:31:53.447Z,9.30
2022-10-23T08:33:57.665Z,9.75
2022-10-23T08:36:00.460Z,5.90
2022-10-23T08:38:03.321Z,8.35
2022-10-23T08:40:07.365Z,4.53
2022-10-23T08:42:20.549Z,6.93
2022-10-23T08:44:28.125Z,5.93
2022-10-23T08:46:33.806Z,5.30
2022-10-23T08:48:41.267Z,5.68
2022-10-23T08:50:49.495Z,4.07
2022-10-23T08:52:58.912Z,5.70
2022-10-23T08:55:08.432Z,6.00
2022-10-23T08:57:14.867Z,4.07
2022-10-23T08:59:26.089Z,6.45
2022-10-23T09:01:38.580Z,6.97
2022-10-23T09:03:41.486Z,5.97
2022-10-23T09:05:57.340Z,5.05
2022-10-23T09:08:15.985Z,8.65
2022-10-23T09:10:35.326Z,4.05
2022-10-23T09:12:40.758Z,4.05
2022-10-23T09:14:55.259Z,5.60
2022-10-23T09:17:12.485Z,7.15
2022-10-23T09:19:18.440Z,5.35
2022-10-23T09:21:28.030Z,4.68
2022-10-23T09:23:30.950Z,5.57
2022-10-23T09:25:38.691Z,3.55
2022-10-23T09:27:49.659Z,4.90
2022-10-23T09:29:58.260Z,3.63
2022-10-23T09:32:03.433Z,5.25
2022-10-23T09:34:09.680Z,4.00
2022-10-23T09:36:20.713Z,3.13
2022-10-23T09:38:30.510Z,5.85
2022-10-23T09:40:40.115Z,6.65
2022-10-23T09:42:54.098Z,5.78
2022-10-23T09:44:57.942Z,4.55
2022-10-23T09:47:11.032Z,5.93
2022-10-23T09:49:19.738Z,5.28
2022-10-23T09:51:23.147Z,4.18
2022-10-23T09:53:35.263Z,4.43
2022-10-23T09:55:38.304Z,4.80
2022-10-23T09:57:43.406Z,4.72
2022-10-23T09:59:52.384Z,3.88
2022-10-23T10:01:58.141Z,3.20
2022-10-23T10:04:01.388Z,3.65
2022-10-23T10:06:05.985Z,4.50
2022-10-23T10:08:22.838Z,5.40
2022-10-23T10:10:30.103Z,5.05
2022-10-23T10:12:46.579Z,3.30
2022-10-23T10:15:00.758Z,3.53
2022-10-23T10:17:08.916Z,3.08
2022-10-23T10:19:18.981Z,4.38
2022-10-23T10:21:28.665Z,4.00
2022-10-23T10:23:38.924Z,6.65
2022-10-23T10:25:51.367Z,4.03
2022-10-23T10:28:09.101Z,2.85
2022-10-23T10:30:15.579Z,6.75
2022-10-23T10:32:32.017Z,3.80
2022-10-23T10:34:44.070Z,5.28
2022-10-23T10:36:53.587Z,5.63
2022-10-23T10:39:00.537Z,4.45
2022-10-23T10:41:45.120Z,5.03
2022-10-23T10:43:58.771Z,5.75
2022-10-23T10:46:09.312Z,6.60
2022-10-23T10:48:24.499Z,3.20
2022-10-23T10:50:32.204Z,5.78
2022-10-23T10:52:48.306Z,4.30
2022-10-23T10:54:59.911Z,6.07
2022-10-23T10:57:06.271Z,4.97
2022-10-23T10:59:20.000Z,4.13
2022-10-23T11:01:26.714Z,4.38
2022-10-23T11:03:40.055Z,3.42
2022-10-23T11:05:46.652Z,2.90
2022-10-23T11:07:56.360Z,3.33
2022-10-23T11:10:01.159Z,5.43
2022-10-23T11:12:04.217Z,5.78
2022-10-23T11:14:08.051Z,3.33
2022-10-23T11:16:16.080Z,3.60
2022-10-23T11:18:25.261Z,3.58
2022-10-23T11:20:53.474Z,2.65
2022-10-23T11:23:03.049Z,6.72
2022-10-23T11:25:44.804Z,4.13
2022-10-23T11:28:10.579Z,3.45
2022-10-23T11:30:22.190Z,3.30
2022-10-23T11:32:39.095Z,3.80
2022-10-23T11:34:57.308Z,3.25
2022-10-23T11:37:01.731Z,5.70
2022-10-23T11:39:18.443Z,2.95
2022-10-23T11:41:26.702Z,4.15
2022-10-23T11:43:33.587Z,4.75
2022-10-23T11:45:38.530Z,3.05
2022-10-23T11:47:44.288Z,4.22
2022-10-23T11:49:47.052Z,4.78
2022-10-23T11:52:01.611Z,4.68
2022-10-23T11:54:22.256Z,3.65
2022-10-23T11:56:27.321Z,3.60
2022-10-23T11:58:42.644Z,3.33
2022-10-23T12:01:00.646Z,5.43
2022-10-23T12:03:05.378Z,3.70
2022-10-23T12:05:26.072Z,4.72
2022-10-23T12:07:31.894Z,5.35
2022-10-23T12:09:41.030Z,4.13
2022-10-23T12:11:48.089Z,3.95
2022-10-23T12:13:50.953Z,4.13
2022-10-23T12:15:58.447Z,3.33
2022-10-23T12:18:16.699Z,3.47
2022-10-23T12:20:40.060Z,2.90
2022-10-23T12:22:50.458Z,4.20
2022-10-23T12:25:04.311Z,3.33
2022-10-23T12:27:19.622Z,4.40
2022-10-23T12:29:35.856Z,2.88
2022-10-23T12:31:48.804Z,2.75
2022-10-23T12:34:02.279Z,4.40
2022-10-23T12:36:26.698Z,2.97
2022-10-23T12:38:33.956Z,3.78
2022-10-23T12:40:39.159Z,3.42
2022-10-23T12:42:50.680Z,3.80
2022-10-23T12:45:00.609Z,3.47
2022-10-23T12:47:04.845Z,5.63
2022-10-23T12:49:16.255Z,4.78
2022-10-23T12:51:25.091Z,2.72
2022-10-23T12:53:27.881Z,3.15
2022-10-23T12:55:35.828Z,2.88
2022-10-23T12:57:43.183Z,4.05
2022-10-23T12:59:46.356Z,4.60
2022-10-23T13:01:52.719Z,3.53
2022-10-23T13:04:02.789Z,4.15
2022-10-23T13:06:07.626Z,4.32
2022-10-23T13:08:12.056Z,4.47
2022-10-23T13:10:16.966Z,3.15
2022-10-23T13:12:24.392Z,3.97
2022-10-23T13:14:38.258Z,3.63
2022-10-23T13:16:43.517Z,4.30
2022-10-23T13:18:46.587Z,4.82
2022-10-23T13:20:59.597Z,6.28
2022-10-23T13:23:12.440Z,3.50
2022-10-23T13:25:23.283Z,6.38
2022-10-23T13:27:27.722Z,2.55
2022-10-23T13:29:32.420Z,3.05
2022-10-23T13:31:35.429Z,3.22
2022-10-23T13:33:40.026Z,3.13
2022-10-23T13:35:43.637Z,2.28
2022-10-23T13:37:46.359Z,7.90
2022-10-23T13:40:01.196Z,2.65
2022-10-23T13:42:14.082Z,2.95
2022-10-23T13:44:19.572Z,4.07
2022-10-23T13:46:25.480Z,3.88
2022-10-23T13:48:28.847Z,2.88
2022-10-23T13:50:32.008Z,3.35
2022-10-23T13:52:35.151Z,3.60
2022-10-23T13:54:38.152Z,2.13
2022-10-23T13:56:42.438Z,2.55
2022-10-23T13:58:45.265Z,3.67
2022-10-23T14:00:50.143Z,5.25
2022-10-23T14:02:52.857Z,3.05
2022-10-23T14:04:55.744Z,4.30
2022-10-23T14:06:58.788Z,3.90
2022-10-23T14:09:01.749Z,4.28
2022-10-23T14:11:04.712Z,3.17
2022-10-23T14:13:08.764Z,2.42
2022-10-23T14:15:12.656Z,3.10
2022-10-23T14:17:15.343Z,3.83
2022-10-23T14:19:18.008Z,4.20
2022-10-23T14:21:22.410Z,4.07
2022-10-23T14:23:25.603Z,6.53
2022-10-23T14:25:28.459Z,5.50
2022-10-23T14:27:31.537Z,3.30
2022-10-23T14:29:35.740Z,4.00
2022-10-23T14:31:38.595Z,4.38
2022-10-23T14:33:42.057Z,3.13
2022-10-23T14:35:44.937Z,2.50
2022-10-23T14:37:47.675Z,3.30
2022-10-23T14:39:50.698Z,3.40
2022-10-23T14:41:53.405Z,3.25
2022-10-23T14:43:56.416Z,3.45
2022-10-23T14:46:09.773Z,4.15
2022-10-23T14:48:12.650Z,4.32
2022-10-23T14:50:16.159Z,4.32
2022-10-23T14:52:19.101Z,3.17
2022-10-23T14:54:22.005Z,6.13
2022-10-23T14:56:24.916Z,4.05
2022-10-23T14:58:28.368Z,3.05
2022-10-23T15:00:31.307Z,4.18
2022-10-23T15:02:35.405Z,3.20
2022-10-23T15:04:38.327Z,3.70
2022-10-23T15:06:41.460Z,5.47
2022-10-23T15:08:44.558Z,5.43
2022-10-23T15:10:47.348Z,3.50
2022-10-23T15:12:50.064Z,5.68
2022-10-23T15:14:52.760Z,4.95
2022-10-23T15:16:55.579Z,4.18
2022-10-23T15:18:59.650Z,3.53
2022-10-23T15:21:02.321Z,4.70
2022-10-23T15:23:05.026Z,4.43
2022-10-23T15:25:08.970Z,5.68
2022-10-23T15:27:12.149Z,5.47
2022-10-23T15:29:16.202Z,3.33
2022-10-23T15:31:40.767Z,4.03
2022-10-23T15:33:43.453Z,5.13
2022-10-23T15:35:47.475Z,4.10
2022-10-23T15:37:50.137Z,3.38
2022-10-23T15:39:52.856Z,4.80
2022-10-23T15:41:57.389Z,3.15
2022-10-23T15:44:01.799Z,4.10
2022-10-23T15:46:04.845Z,5.18
2022-10-23T15:48:08.062Z,3.67
2022-10-23T15:50:10.947Z,4.05
2022-10-23T15:52:15.025Z,5.85
2022-10-23T15:54:19.741Z,3.60
2022-10-23T15:56:22.443Z,3.47
2022-10-23T15:58:25.203Z,4.30
2022-10-23T16:00:27.978Z,4.80
2022-10-23T16:02:30.833Z,3.90
2022-10-23T16:04:35.218Z,5.32
2022-10-23T16:06:38.006Z,4.32
2022-10-23T16:08:43.756Z,4.57
2022-10-23T16:10:46.589Z,7.15
2022-10-23T16:12:49.356Z,5.15
2022-10-23T16:14:52.475Z,4.72
2022-10-23T16:16:55.385Z,4.18
2022-10-23T16:19:00.363Z,6.88
2022-10-23T16:21:03.130Z,4.43
2022-10-23T16:23:06.002Z,6.70
2022-10-23T16:25:11.341Z,5.95
2022-10-23T16:27:14.256Z,6.50
2022-10-23T16:29:17.120Z,4.03
2022-10-23T16:31:21.420Z,4.35
2022-10-23T16:33:24.131Z,4.97
2022-10-23T16:35:27.254Z,6.00
2022-10-23T16:37:29.954Z,6.03
2022-10-23T16:39:32.640Z,5.75
2022-10-23T16:41:36.687Z,5.82
2022-10-23T16:43:39.624Z,5.35
2022-10-23T16:45:42.646Z,5.38
2022-10-23T16:47:45.598Z,5.85
2022-10-23T16:49:48.372Z,6.68
2022-10-23T16:51:51.118Z,5.63
2022-10-23T16:53:55.028Z,4.57
2022-10-23T16:55:58.508Z,5.25
2022-10-23T16:58:02.533Z,6.82
2022-10-23T17:00:07.455Z,7.00
2022-10-23T17:02:11.280Z,6.55
2022-10-23T17:04:14.359Z,6.32
2022-10-23T17:06:19.028Z,7.15
2022-10-23T17:08:22.060Z,7.60
2022-10-23T17:10:25.144Z,6.07
2022-10-23T17:12:27.834Z,8.20
2022-10-23T17:14:32.240Z,10.05
2022-10-23T17:16:37.475Z,5.65
2022-10-23T17:18:43.865Z,11.77
2022-10-23T17:20:47.074Z,7.07
2022-10-23T17:22:49.743Z,6.30
2022-10-23T17:24:54.127Z,7.55
2022-10-23T17:26:57.064Z,8.70
2022-10-23T17:29:01.403Z,5.90
2022-10-23T17:31:06.022Z,6.35
2022-10-23T17:33:08.972Z,5.95
2022-10-23T17:35:11.826Z,6.57
2022-10-23T17:37:14.542Z,5.68
2022-10-23T17:39:19.775Z,5.82
2022-10-23T17:41:25.276Z,5.88
2022-10-23T17:43:27.992Z,7.20
2022-10-23T17:45:30.907Z,7.05
2022-10-23T17:47:35.116Z,6.60
2022-10-23T17:49:39.547Z,10.15
2022-10-23T17:51:44.433Z,7.90
2022-10-23T17:53:49.070Z,10.57
2022-10-23T17:55:51.747Z,8.63
2022-10-23T17:57:54.533Z,8.95
2022-10-23T17:59:57.231Z,10.80
2022-10-23T18:02:00.691Z,9.45
2022-10-23T18:04:07.631Z,7.80
2022-10-23T18:06:11.419Z,7.03
2022-10-23T18:08:14.692Z,6.50
2022-10-23T18:10:17.645Z,7.90
2022-10-23T18:12:20.644Z,8.90
2022-10-23T18:14:26.139Z,12.65
2022-10-23T18:16:31.289Z,10.15
2022-10-23T18:18:34.364Z,6.85
2022-10-23T18:20:41.775Z,10.13
2022-10-23T18:22:44.587Z,8.82
2022-10-23T18:24:47.479Z,8.27
2022-10-23T18:26:50.420Z,8.68
2022-10-23T18:28:55.498Z,7.28
2022-10-23T18:30:58.441Z,10.70
2022-10-23T18:33:01.089Z,9.85
2022-10-23T18:35:03.938Z,14.27
2022-10-23T18:37:08.431Z,9.82
2022-10-23T18:39:14.917Z,12.80
2022-10-23T18:41:18.738Z,10.10
2022-10-23T18:43:41.950Z,8.70
2022-10-23T18:45:44.266Z,10.88
2022-10-23T18:47:47.303Z,10.55
2022-10-23T18:49:49.972Z,12.60
2022-10-23T18:51:52.853Z,11.32
2022-10-23T18:53:57.383Z,13.80
2022-10-23T18:56:00.619Z,13.50
2022-10-23T18:58:03.383Z,14.15
2022-10-23T19:00:08.234Z,16.20
2022-10-23T19:02:13.003Z,16.75
2022-10-23T19:04:17.756Z,20.40
2022-10-23T19:06:22.032Z,16.17
2022-10-23T19:08:24.915Z,14.82
2022-10-23T19:10:32.477Z,12.75
2022-10-23T19:12:35.429Z,18.17
2022-10-23T19:14:38.897Z,18.80
2022-10-23T19:16:45.669Z,15.90
2022-10-23T19:18:51.803Z,16.50
2022-10-23T19:20:54.720Z,16.55
2022-10-23T19:22:59.819Z,19.15
2022-10-23T19:25:10.084Z,22.33
2022-10-23T19:27:14.098Z,17.75
2022-10-23T19:29:20.519Z,16.63
2022-10-23T19:31:25.931Z,21.60
2022-10-23T19:33:28.896Z,20.02
2022-10-23T19:35:31.595Z,26.88
2022-10-23T19:37:34.302Z,20.67
2022-10-23T19:39:37.010Z,25.65
2022-10-23T19:41:39.692Z,22.25
2022-10-23T19:43:43.990Z,22.33
2022-10-23T19:45:47.168Z,25.38
2022-10-23T19:47:50.212Z,25.02
2022-10-23T19:49:53.084Z,28.23
2022-10-23T19:51:56.012Z,28.45
2022-10-23T19:53:59.321Z,26.70
2022-10-23T19:56:03.813Z,27.05
2022-10-23T19:58:07.160Z,27.42
2022-10-23T20:00:13.348Z,32.03
2022-10-23T20:02:16.170Z,29.85
2022-10-23T20:04:19.452Z,29.23
2022-10-23T20:06:25.316Z,29.35
2022-10-23T20:08:31.310Z,28.15
2022-10-23T20:10:41.735Z,28.70
2022-10-23T20:12:51.647Z,28.60
2022-10-23T20:15:06.120Z,31.50
2022-10-23T20:17:10.211Z,37.10
2022-10-23T20:19:15.154Z,38.10
2022-10-23T20:21:19.288Z,38.72
2022-10-23T20:23:22.221Z,39.22
2022-10-23T20:25:25.089Z,35.72
2022-10-23T20:27:28.463Z,36.72
2022-10-23T20:29:32.245Z,35.15
2022-10-23T20:31:36.252Z,36.33
2022-10-23T20:33:41.843Z,31.60
2022-10-23T20:35:44.844Z,31.27
2022-10-23T20:37:47.799Z,31.60
2022-10-23T20:39:50.639Z,30.30
2022-10-23T20:41:55.055Z,34.42
2022-10-23T20:43:57.988Z,33.88
2022-10-23T20:46:04.658Z,32.10
2022-10-23T20:48:08.357Z,36.15
2022-10-23T20:50:14.314Z,30.67
2022-10-23T20:52:17.427Z,35.90
2022-10-23T20:54:20.649Z,27.08
2022-10-23T20:56:30.071Z,35.25
2022-10-23T20:58:33.198Z,33.47
2022-10-23T21:00:36.037Z,29.10
2022-10-23T21:02:38.806Z,32.90
2022-10-23T21:04:41.768Z,31.17
2022-10-23T21:07:08.359Z,35.28
2022-10-23T21:11:18.122Z,28.90
2022-10-23T21:13:20.969Z,30.17
2022-10-23T21:15:23.880Z,27.83
2022-10-23T21:17:26.728Z,34.10
2022-10-23T21:19:29.947Z,31.60
2022-10-23T21:21:33.827Z,29.58
2022-10-23T21:23:38.266Z,38.83
2022-10-23T21:25:41.641Z,31.60
2022-10-23T21:27:45.274Z,29.70
2022-10-23T21:29:48.220Z,31.48
2022-10-23T21:31:54.598Z,35.80
2022-10-23T21:33:57.522Z,35.10
2022-10-23T21:36:12.818Z,34.65
2022-10-23T21:38:16.022Z,36.78
2022-10-23T21:40:20.318Z,37.83
2022-10-23T21:42:23.214Z,38.17
2022-10-23T21:44:25.915Z,43.03
2022-10-23T21:46:31.220Z,45.38
2022-10-23T21:48:34.479Z,40.45
2022-10-23T21:50:37.554Z,43.10
2022-10-23T21:52:41.047Z,41.97
2022-10-23T21:54:43.900Z,45.10
2022-10-23T21:56:49.907Z,44.97
2022-10-23T21:58:52.727Z,40.88
2022-10-23T22:00:55.720Z,46.97
2022-10-23T22:02:58.490Z,48.42
2022-10-23T22:05:01.215Z,39.38
2022-10-23T22:07:04.249Z,46.40
2022-10-23T22:09:08.363Z,45.15
2022-10-23T22:11:12.602Z,44.08
2022-10-23T22:13:16.865Z,43.15
2022-10-23T22:15:19.936Z,51.13
2022-10-23T22:17:22.713Z,54.33
2022-10-23T22:19:25.947Z,46.50
2022-10-23T22:21:30.737Z,46.08
2022-10-23T22:23:34.424Z,54.13
2022-10-23T22:25:39.393Z,53.53
2022-10-23T22:27:42.233Z,46.13
2022-10-23T22:29:47.173Z,53.92
2022-10-23T22:31:50.732Z,54.88
2022-10-23T22:33:54.459Z,57.15
2022-10-23T22:36:02.010Z,65.93
2022-10-23T22:38:05.096Z,61.75
2022-10-23T22:40:08.996Z,61.20
2022-10-23T22:42:11.707Z,66.78
2022-10-23T22:44:15.747Z,70.72
2022-10-23T22:46:20.508Z,66.90
2022-10-23T22:48:23.178Z,66.78
2022-10-23T22:50:26.054Z,64.93
2022-10-23T22:52:28.723Z,70.18
2022-10-23T22:54:31.563Z,67.63
2022-10-23T22:56:34.788Z,72.18
2022-10-23T22:58:38.707Z,80.20
2022-10-23T23:00:43.618Z,76.20
2022-10-23T23:02:48.244Z,78.07
2022-10-23T23:04:51.003Z,78.25
2022-10-23T23:06:53.895Z,65.57
2022-10-23T23:08:57.327Z,77.25
2022-10-23T23:11:00.121Z,81.70
2022-10-23T23:13:02.911Z,81.57
2022-10-23T23:15:06.378Z,76.32
2022-10-23T23:17:10.884Z,74.65
2022-10-23T23:19:14.997Z,88.75
2022-10-23T23:21:18.430Z,84.13
2022-10-23T23:23:21.671Z,86.05
2022-10-23T23:25:24.522Z,85.63
2022-10-23T23:27:27.487Z,84.07
2022-10-23T23:29:30.408Z,95.50
2022-10-23T23:31:33.121Z,85.20
2022-10-23T23:33:36.651Z,80.80
2022-10-23T23:35:42.299Z,102.57
2022-10-23T23:37:44.995Z,87.28
2022-10-23T23:39:47.693Z,85.38
2022-10-23T23:41:50.359Z,90.55
2022-10-23T23:43:55.220Z,86.13
2022-10-23T23:45:58.380Z,82.65
2022-10-23T23:48:01.403Z,79.38
2022-10-23T23:50:05.139Z,95.03
2022-10-23T23:52:09.416Z,83.55
2022-10-23T23:54:12.276Z,76.97
2022-10-23T23:56:15.711Z,85.10
2022-10-23T23:58:18.783Z,87.43
